Time;durP1;ratioP1;P1;durP2;ratioP2;P2;SDS_P1;SDS_P2;PMS_P1;PMS_P2;Temp;Humidity;BMP_temperature;BMP_pressure;BME280_temperature;BME280_humidity;BME280_pressure;Samples;Min_cycle;Max_cycle;Signal;HPM_P1;HPM_P2
2022/01/21 00:02:18;;;;;;;29.07;13.97;;;;;;;5.08;53.71;94542.09;5090001;28;20256;-80
2022/01/21 00:04:46;;;;;;;30.80;15.00;;;;;;;5.06;53.67;94544.09;5100425;28;20285;-80
2022/01/21 00:07:14;;;;;;;35.47;16.07;;;;;;;5.03;53.97;94547.84;5091938;28;20280;-85
2022/01/21 00:09:46;;;;;;;33.30;15.83;;;;;;;5.13;52.89;94555.25;5110319;28;20268;-86
2022/01/21 00:12:16;;;;;;;27.03;11.50;;;;;;;5.21;51.55;94554.28;5102139;28;20275;-86
2022/01/21 00:14:46;;;;;;;25.73;11.80;;;;;;;5.22;51.17;94572.16;5117686;28;20223;-84
2022/01/21 00:17:15;;;;;;;24.73;9.60;;;;;;;5.25;52.40;94564.06;5119210;27;20220;-84
2022/01/21 00:19:47;;;;;;;15.27;6.47;;;;;;;5.33;53.00;94571.63;5118744;28;20208;-82
2022/01/21 00:30:32;;;;;;;14.07;5.70;;;;;;;5.70;52.65;94575.63;5113489;28;20199;-81
2022/01/21 00:33:01;;;;;;;18.07;5.13;;;;;;;5.64;53.37;94584.91;5107704;28;20203;-81
2022/01/21 00:35:37;;;;;;;10.93;3.97;;;;;;;5.50;54.56;94590.97;5093193;28;20216;-80
2022/01/21 00:38:09;;;;;;;6.07;3.17;;;;;;;5.41;56.99;94592.09;5111338;28;20213;-82
2022/01/21 00:40:37;;;;;;;12.47;3.83;;;;;;;5.38;56.18;94600.19;5109337;28;20200;-83
2022/01/21 00:43:13;;;;;;;10.27;3.90;;;;;;;5.48;56.26;94605.81;5111836;28;20672;-82
2022/01/21 00:45:43;;;;;;;11.13;4.10;;;;;;;5.56;57.11;94621.16;5114147;28;20172;-81
2022/01/21 00:48:12;;;;;;;9.60;3.90;;;;;;;5.47;59.33;94622.28;5097545;28;20312;-81
2022/01/21 00:50:39;;;;;;;10.80;4.10;;;;;;;5.41;61.04;94622.22;5091109;28;20666;-81
2022/01/21 00:53:07;;;;;;;10.77;4.43;;;;;;;5.30;64.99;94626.13;5102697;28;20195;-81
2022/01/21 00:55:36;;;;;;;15.73;4.53;;;;;;;5.01;70.02;94628.81;5095169;28;20233;-80
2022/01/21 00:58:14;;;;;;;12.83;4.73;;;;;;;4.76;75.61;94643.03;5091870;28;20205;-81
2022/01/21 01:00:43;;;;;;;6.43;3.87;;;;;;;4.62;80.48;94631.03;5107026;28;20210;-83
2022/01/21 01:03:13;;;;;;;8.27;3.90;;;;;;;4.42;84.18;94631.59;5106672;28;20228;-83
2022/01/21 01:05:42;;;;;;;8.97;4.00;;;;;;;4.43;85.91;94640.09;5097355;28;20591;-81
2022/01/21 01:08:09;;;;;;;10.87;3.90;;;;;;;4.43;86.55;94632.38;5097677;28;20222;-83
2022/01/21 01:10:45;;;;;;;10.90;4.07;;;;;;;4.37;87.92;94630.53;5100942;28;20204;-83
2022/01/21 01:21:29;;;;;;;14.20;5.63;;;;;;;4.38;88.19;94608.97;5095375;28;20205;-85
2022/01/21 01:27:35;;;;;;;11.10;5.60;;;;;;;4.34;89.16;94597.44;5107068;28;20196;-84
2022/01/21 01:29:39;;;;;;;8.83;4.63;;;;;;;4.25;90.08;94609.63;5108219;28;20277;-82
2022/01/21 01:32:08;;;;;;;7.93;4.80;;;;;;;4.27;91.17;94601.75;5115284;28;20245;-83
2022/01/21 01:34:36;;;;;;;8.17;4.57;;;;;;;4.31;89.76;94608.09;5106559;28;20211;-82
2022/01/21 01:37:12;;;;;;;6.63;4.50;;;;;;;4.29;89.84;94599.78;5112363;28;20265;-83
2022/01/21 01:39:44;;;;;;;8.47;4.10;;;;;;;4.30;89.80;94591.09;5110089;28;20688;-84
2022/01/21 01:50:37;;;;;;;5.93;3.80;;;;;;;4.08;94.69;94582.53;5098346;28;20309;-81
2022/01/21 01:53:07;;;;;;;8.00;4.40;;;;;;;4.04;96.03;94583.06;5103966;28;20702;-81
2022/01/21 01:55:36;;;;;;;6.80;4.30;;;;;;;4.00;97.62;94583.44;5110749;28;20231;-81
2022/01/21 01:58:05;;;;;;;5.87;4.27;;;;;;;4.11;97.63;94592.44;5099008;28;20196;-81
2022/01/21 02:00:36;;;;;;;6.33;4.30;;;;;;;4.13;98.67;94587.91;5113789;28;20663;-82
2022/01/21 02:03:20;;;;;;;9.63;5.03;;;;;;;3.96;100.00;94583.94;5112433;28;20181;-80
2022/01/21 02:05:50;;;;;;;8.13;4.83;;;;;;;3.98;100.00;94600.00;5102767;28;20205;-83
2022/01/21 02:08:19;;;;;;;7.83;5.10;;;;;;;3.95;100.00;94595.22;5095316;28;20203;-82
2022/01/21 02:10:48;;;;;;;7.43;5.30;;;;;;;3.85;100.00;94595.50;5112420;28;20207;-82
2022/01/21 02:13:27;;;;;;;9.43;5.53;;;;;;;3.70;100.00;94593.88;5109097;28;20232;-82
2022/01/21 02:16:05;;;;;;;8.10;5.20;;;;;;;3.57;100.00;94586.00;5097417;28;20200;-82
2022/01/21 02:21:32;;;;;;;9.40;5.60;;;;;;;3.43;100.00;94590.16;5092375;28;20238;-83
2022/01/21 02:24:04;;;;;;;10.70;5.50;;;;;;;3.29;100.00;94591.72;5103464;28;20654;-83
2022/01/21 02:26:33;;;;;;;10.30;5.07;;;;;;;3.24;100.00;94598.38;5112729;28;20276;-83
2022/01/21 02:29:10;;;;;;;8.43;5.17;;;;;;;3.13;100.00;94580.81;5111724;28;20193;-84
2022/01/21 02:31:39;;;;;;;9.70;5.67;;;;;;;3.15;100.00;94594.25;5098445;28;20200;-84
2022/01/21 02:34:08;;;;;;;9.80;6.20;;;;;;;3.01;100.00;94600.16;5099187;28;20205;-84
2022/01/21 02:36:37;;;;;;;9.27;6.23;;;;;;;2.89;100.00;94601.56;5091027;28;20706;-84
2022/01/21 02:39:12;;;;;;;10.10;6.17;;;;;;;2.75;100.00;94603.09;5091265;28;20953;-84
2022/01/21 02:41:40;;;;;;;8.07;5.97;;;;;;;2.81;100.00;94610.09;5105632;28;20670;-84
2022/01/21 02:44:14;;;;;;;10.43;6.47;;;;;;;2.88;100.00;94616.16;5105486;28;20200;-84
2022/01/21 02:46:42;;;;;;;13.73;6.97;;;;;;;2.73;100.00;94617.88;5105149;28;20296;-84
2022/01/21 02:49:10;;;;;;;11.33;6.50;;;;;;;2.78;100.00;94624.06;5091363;28;20295;-84
2022/01/21 02:51:40;;;;;;;9.97;6.53;;;;;;;2.83;100.00;94613.28;5100362;28;20619;-84
2022/01/21 02:54:10;;;;;;;9.30;6.20;;;;;;;2.72;100.00;94617.06;5112635;28;20700;-85
2022/01/21 02:56:40;;;;;;;8.33;6.17;;;;;;;2.91;100.00;94622.72;5112516;28;20249;-85
2022/01/21 02:59:11;;;;;;;11.63;6.80;;;;;;;3.01;100.00;94623.25;5120151;28;20229;-85
2022/01/21 03:01:43;;;;;;;13.30;7.10;;;;;;;3.02;100.00;94630.00;5117432;28;20199;-83
2022/01/21 03:04:20;;;;;;;9.97;7.17;;;;;;;2.92;100.00;94629.44;5097703;28;20200;-84
2022/01/21 03:06:49;;;;;;;10.23;6.70;;;;;;;2.87;100.00;94635.09;5110855;28;20747;-82
2022/01/21 03:09:18;;;;;;;11.90;7.00;;;;;;;2.79;100.00;94630.00;5111125;27;20214;-82
2022/01/21 03:11:48;;;;;;;10.43;7.13;;;;;;;2.68;100.00;94627.84;5111677;28;20192;-82
2022/01/21 03:14:16;;;;;;;11.07;7.10;;;;;;;2.70;100.00;94629.28;5104669;28;20208;-82
2022/01/21 03:16:44;;;;;;;11.03;6.80;;;;;;;2.72;100.00;94645.28;5103615;28;20223;-82
2022/01/21 03:19:14;;;;;;;10.13;7.37;;;;;;;2.72;100.00;94647.03;5104200;28;20238;-81
2022/01/21 03:21:43;;;;;;;11.33;7.43;;;;;;;2.75;100.00;94646.72;5090629;28;20570;-83
2022/01/21 03:24:14;;;;;;;9.83;6.83;;;;;;;2.72;100.00;94637.59;5090825;28;20196;-81
2022/01/21 03:26:42;;;;;;;7.60;5.57;;;;;;;2.78;100.00;94643.81;5091268;28;20195;-81
2022/01/21 03:29:10;;;;;;;7.73;5.47;;;;;;;2.73;100.00;94646.88;5109662;28;20285;-82
2022/01/21 03:31:38;;;;;;;5.63;4.13;;;;;;;2.70;100.00;94660.06;5104246;28;20211;-82
2022/01/21 03:34:06;;;;;;;4.07;3.20;;;;;;;2.66;100.00;94658.78;5111345;28;20204;-83
2022/01/21 03:36:35;;;;;;;4.93;2.90;;;;;;;2.59;100.00;94654.50;5111002;28;20287;-82
2022/01/21 03:39:04;;;;;;;3.40;2.50;;;;;;;2.56;100.00;94665.09;5111024;28;20207;-81
2022/01/21 03:41:34;;;;;;;2.50;2.30;;;;;;;2.59;100.00;94675.03;5112591;28;20261;-83
2022/01/21 03:44:02;;;;;;;3.00;2.40;;;;;;;2.39;100.00;94672.09;5115601;28;20588;-84
2022/01/21 03:46:32;;;;;;;2.60;2.20;;;;;;;2.47;100.00;94669.47;5115252;28;20252;-83
2022/01/21 03:49:03;;;;;;;2.60;2.23;;;;;;;2.46;100.00;94669.63;5115106;28;20253;-83
2022/01/21 03:51:32;;;;;;;2.10;1.90;;;;;;;2.44;100.00;94663.88;5115074;28;20198;-84
2022/01/21 03:53:59;;;;;;;2.10;1.90;;;;;;;2.45;100.00;94665.50;5114742;28;20221;-83
2022/01/21 03:56:28;;;;;;;2.20;2.00;;;;;;;2.53;100.00;94679.06;5114947;28;20223;-83
2022/01/21 03:58:59;;;;;;;2.13;1.93;;;;;;;2.57;100.00;94675.19;5114784;28;20275;-83
2022/01/21 04:01:57;;;;;;;2.30;2.03;;;;;;;2.58;100.00;94676.00;5115418;28;20553;-83
2022/01/21 04:04:26;;;;;;;2.10;1.80;;;;;;;2.50;100.00;94664.00;5114748;28;20200;-82
2022/01/21 04:06:55;;;;;;;2.10;1.90;;;;;;;2.56;100.00;94673.59;5113976;28;20364;-82
2022/01/21 04:09:23;;;;;;;2.77;1.97;;;;;;;2.56;100.00;94681.31;5113071;28;20196;-83
2022/01/21 04:11:52;;;;;;;2.10;1.90;;;;;;;2.59;100.00;94686.09;5112127;27;20269;-83
2022/01/21 04:14:23;;;;;;;2.10;1.90;;;;;;;2.69;100.00;94683.28;5114127;27;20667;-83
2022/01/21 04:16:51;;;;;;;2.77;2.10;;;;;;;2.73;100.00;94695.63;5112098;28;20746;-83
2022/01/21 04:19:28;;;;;;;2.77;2.10;;;;;;;2.68;100.00;94697.91;5114731;28;20671;-83
2022/01/21 04:21:55;;;;;;;2.63;2.30;;;;;;;2.59;100.00;94695.56;5113615;28;20218;-82
2022/01/21 04:24:24;;;;;;;2.60;2.30;;;;;;;2.54;100.00;94693.47;5094399;28;20193;-83
2022/01/21 04:26:53;;;;;;;5.13;2.57;;;;;;;2.44;100.00;94698.03;5101143;28;20200;-82
2022/01/21 04:29:23;;;;;;;5.30;2.97;;;;;;;2.40;100.00;94708.75;5101196;28;20200;-82
2022/01/21 04:31:51;;;;;;;3.23;2.30;;;;;;;2.29;100.00;94708.19;5113872;28;20234;-82
2022/01/21 04:34:19;;;;;;;3.80;2.73;;;;;;;2.20;100.00;94714.28;5112901;28;20208;-82
2022/01/21 04:36:46;;;;;;;2.97;2.63;;;;;;;2.15;100.00;94716.56;5100095;28;20689;-83
2022/01/21 04:39:22;;;;;;;2.87;2.60;;;;;;;2.15;100.00;94715.75;5108878;28;20204;-81
2022/01/21 04:47:19;;;;;;;2.53;2.17;;;;;;;2.22;100.00;94721.84;5095217;28;20214;-81
2022/01/21 04:49:48;;;;;;;3.93;2.20;;;;;;;2.25;100.00;94729.97;5100229;28;20260;-83
2022/01/21 04:52:19;;;;;;;2.90;2.57;;;;;;;2.17;100.00;94716.38;5114106;28;20654;-82
2022/01/21 04:54:48;;;;;;;2.60;2.40;;;;;;;2.26;100.00;94733.34;5107810;28;20224;-85
2022/01/21 04:57:16;;;;;;;2.53;2.33;;;;;;;2.27;100.00;94740.88;5101141;28;20747;-83
2022/01/21 04:59:49;;;;;;;2.33;2.13;;;;;;;2.24;100.00;94741.19;5105986;27;20211;-83
2022/01/21 05:02:17;;;;;;;2.97;2.57;;;;;;;2.38;100.00;94759.41;5093632;28;20298;-82
2022/01/21 05:04:45;;;;;;;3.13;2.70;;;;;;;2.41;100.00;94748.84;5109100;28;20234;-83
2022/01/21 05:07:19;;;;;;;5.27;3.30;;;;;;;2.46;100.00;94749.13;5099664;28;20200;-83
2022/01/21 05:09:54;;;;;;;4.77;3.00;;;;;;;2.37;100.00;94750.16;5103850;28;20249;-83
2022/01/21 05:12:39;;;;;;;5.07;3.00;;;;;;;2.32;100.00;94753.19;5107121;28;20263;-83
2022/01/21 05:17:53;;;;;;;4.33;2.97;;;;;;;2.31;100.00;94749.00;5099203;28;20288;-72
2022/01/21 05:20:21;;;;;;;4.53;2.73;;;;;;;2.24;100.00;94758.34;5111702;28;20578;-71
2022/01/21 05:22:50;;;;;;;5.10;2.90;;;;;;;2.28;100.00;94764.72;5101454;28;20188;-71
2022/01/21 05:25:20;;;;;;;5.33;3.33;;;;;;;2.26;100.00;94777.72;5099594;28;20290;-71
2022/01/21 05:27:50;;;;;;;5.87;3.40;;;;;;;2.13;100.00;94779.19;5104733;28;20292;-71
2022/01/21 05:30:19;;;;;;;6.07;3.43;;;;;;;2.09;100.00;94786.41;5101007;28;20208;-70
2022/01/21 05:32:47;;;;;;;7.30;3.67;;;;;;;2.10;100.00;94782.91;5104390;28;20294;-70
2022/01/21 05:35:15;;;;;;;7.00;3.63;;;;;;;2.02;100.00;94794.91;5107067;28;20200;-72
2022/01/21 05:37:44;;;;;;;4.77;3.03;;;;;;;1.95;100.00;94802.44;5110423;28;20223;-71
2022/01/21 05:40:15;;;;;;;4.17;2.63;;;;;;;1.97;100.00;94805.63;5110537;28;20309;-71
2022/01/21 05:42:43;;;;;;;7.17;2.73;;;;;;;2.03;100.00;94820.38;5110912;28;20199;-72
2022/01/21 05:47:57;;;;;;;5.40;2.53;;;;;;;2.00;100.00;94828.38;5109461;28;20295;-72
2022/01/21 05:50:25;;;;;;;3.70;2.80;;;;;;;1.88;100.00;94819.41;5110350;28;20203;-71
2022/01/21 05:52:52;;;;;;;3.13;2.23;;;;;;;1.74;100.00;94830.28;5109449;28;20963;-71
2022/01/21 05:55:20;;;;;;;3.57;2.30;;;;;;;1.82;100.00;94850.00;5110489;28;20939;-72
2022/01/21 05:57:47;;;;;;;3.90;2.87;;;;;;;1.69;100.00;94843.59;5109484;28;20225;-72
2022/01/21 06:00:17;;;;;;;3.63;2.70;;;;;;;1.72;100.00;94847.59;5109968;28;20208;-73
2022/01/21 06:02:44;;;;;;;5.20;2.57;;;;;;;1.77;100.00;94847.09;5104175;28;20281;-72
2022/01/21 06:05:15;;;;;;;5.30;2.60;;;;;;;1.74;100.00;94861.03;5101466;28;20715;-80
2022/01/21 06:07:50;;;;;;;4.47;2.90;;;;;;;1.67;100.00;94865.22;5107678;28;20202;-71
2022/01/21 06:10:18;;;;;;;3.23;2.53;;;;;;;1.67;100.00;94867.78;5102833;28;20207;-73
2022/01/21 06:12:46;;;;;;;4.53;2.60;;;;;;;1.75;100.00;94872.91;5096586;28;20203;-74
2022/01/21 06:15:14;;;;;;;3.97;2.83;;;;;;;1.75;100.00;94880.56;5108959;28;20206;-74
2022/01/21 06:17:42;;;;;;;7.37;3.40;;;;;;;1.75;100.00;94884.91;5110486;28;20316;-73
2022/01/21 06:20:11;;;;;;;8.67;3.57;;;;;;;1.70;100.00;94881.03;5109445;28;20733;-74
2022/01/21 06:22:41;;;;;;;7.60;4.10;;;;;;;1.71;100.00;94892.91;5109275;28;20203;-73
2022/01/21 06:25:10;;;;;;;7.80;4.40;;;;;;;1.82;100.00;94898.69;5108293;28;20212;-74
2022/01/21 06:27:39;;;;;;;6.97;4.37;;;;;;;1.86;100.00;94900.75;5107933;28;20605;-74
2022/01/21 06:30:09;;;;;;;16.30;6.30;;;;;;;1.90;100.00;94901.25;5104516;28;20207;-73
2022/01/21 06:32:37;;;;;;;6.33;4.20;;;;;;;1.84;100.00;94902.69;5109478;28;20207;-73
2022/01/21 06:35:07;;;;;;;7.40;3.80;;;;;;;1.86;100.00;94911.00;5108556;28;20709;-72
2022/01/21 06:37:35;;;;;;;6.37;3.70;;;;;;;1.81;100.00;94923.50;5108835;28;20242;-73
2022/01/21 06:40:15;;;;;;;4.90;3.60;;;;;;;1.68;100.00;94916.25;5109709;28;20197;-75
2022/01/21 06:42:43;;;;;;;4.47;2.87;;;;;;;1.69;100.00;94925.56;5109190;27;20213;-74
2022/01/21 06:45:12;;;;;;;6.73;3.37;;;;;;;1.80;100.00;94929.56;5107842;28;20674;-73
2022/01/21 06:47:42;;;;;;;5.03;3.37;;;;;;;1.76;100.00;94933.38;5107779;28;20207;-73
2022/01/21 06:50:12;;;;;;;8.10;3.60;;;;;;;1.73;100.00;94938.84;5097135;28;20292;-73
2022/01/21 06:52:40;;;;;;;10.93;4.10;;;;;;;1.73;100.00;94951.66;5101143;28;20200;-72
2022/01/21 06:55:10;;;;;;;6.23;4.00;;;;;;;1.75;100.00;94962.53;5107418;28;20288;-73
2022/01/21 06:57:39;;;;;;;9.20;4.30;;;;;;;1.78;100.00;94962.22;5107616;28;20710;-73
2022/01/21 07:00:09;;;;;;;11.80;6.17;;;;;;;1.71;100.00;94963.81;5108547;28;20206;-73
2022/01/21 07:02:38;;;;;;;15.97;7.77;;;;;;;1.60;100.00;94971.78;5087976;28;20328;-73
2022/01/21 07:05:08;;;;;;;10.47;5.50;;;;;;;1.43;100.00;94985.47;5107285;28;20286;-73
2022/01/21 07:07:37;;;;;;;9.83;5.53;;;;;;;1.19;100.00;94993.84;5108397;28;20211;-73
2022/01/21 07:10:10;;;;;;;15.03;6.70;;;;;;;0.87;100.00;94986.78;5108807;28;20288;-74
2022/01/21 07:12:40;;;;;;;12.07;5.83;;;;;;;0.56;100.00;94991.53;5095276;28;20197;-75
2022/01/21 07:15:09;;;;;;;10.47;5.00;;;;;;;0.40;100.00;94988.88;5109241;28;20211;-75
2022/01/21 07:17:37;;;;;;;9.33;6.07;;;;;;;0.38;100.00;94992.50;5108219;28;20231;-74
2022/01/21 07:20:06;;;;;;;10.53;5.13;;;;;;;0.47;100.00;94996.72;5108863;28;20199;-73
2022/01/21 07:22:33;;;;;;;16.03;7.07;;;;;;;0.48;100.00;95004.28;5108830;28;20713;-73
2022/01/21 07:25:02;;;;;;;16.20;8.27;;;;;;;0.51;100.00;95011.66;5107878;28;20605;-73
2022/01/21 07:27:31;;;;;;;17.47;9.17;;;;;;;0.33;100.00;94994.72;5108026;28;20208;-75
2022/01/21 07:30:00;;;;;;;18.87;9.57;;;;;;;0.27;100.00;95001.22;5095610;28;20201;-74
2022/01/21 07:32:27;;;;;;;17.30;10.70;;;;;;;0.23;100.00;95004.22;5099042;28;20221;-75
2022/01/21 07:34:55;;;;;;;21.07;11.73;;;;;;;0.26;100.00;95017.47;5107660;28;20200;-75
2022/01/21 07:37:23;;;;;;;22.83;10.87;;;;;;;0.05;100.00;95019.53;5108366;28;20596;-73
2022/01/21 07:39:53;;;;;;;11.77;5.87;;;;;;;-0.08;100.00;95016.50;5109347;28;20232;-73
2022/01/21 07:42:21;;;;;;;10.73;6.07;;;;;;;-0.23;100.00;95023.84;5108625;28;20282;-74
2022/01/21 07:44:49;;;;;;;13.83;6.43;;;;;;;-0.31;100.00;95021.22;5108492;28;20200;-74
2022/01/21 07:47:19;;;;;;;14.07;7.03;;;;;;;-0.33;100.00;95032.53;5108198;28;20204;-73
2022/01/21 07:49:49;;;;;;;17.90;7.40;;;;;;;-0.40;100.00;95021.25;5109061;28;20216;-74
2022/01/21 07:52:17;;;;;;;17.77;9.17;;;;;;;-0.42;100.00;95025.72;5109082;28;20231;-73
2022/01/21 07:54:45;;;;;;;25.20;10.60;;;;;;;-0.36;100.00;95025.97;5108536;28;20235;-74
2022/01/21 07:57:13;;;;;;;23.90;11.23;;;;;;;-0.25;100.00;95033.41;5107813;28;20204;-73
2022/01/21 07:59:42;;;;;;;21.23;10.67;;;;;;;-0.15;100.00;95039.28;5108449;28;20228;-73
2022/01/21 08:02:11;;;;;;;33.17;18.77;;;;;;;-0.03;100.00;95038.13;5108881;28;20211;-73
2022/01/21 08:04:41;;;;;;;36.27;19.03;;;;;;;0.00;100.00;95052.38;5108543;28;20730;-73
2022/01/21 08:07:10;;;;;;;37.97;19.13;;;;;;;-0.08;100.00;95055.63;5107878;28;20239;-73
2022/01/21 08:09:38;;;;;;;30.13;16.43;;;;;;;-0.01;100.00;95043.91;5108414;28;20257;-73
2022/01/21 08:12:08;;;;;;;40.03;20.43;;;;;;;0.09;100.00;95045.59;5108015;28;20207;-73
2022/01/21 08:14:35;;;;;;;35.03;17.77;;;;;;;0.18;100.00;95052.38;5101785;28;20296;-73
2022/01/21 08:17:02;;;;;;;29.90;15.23;;;;;;;0.21;100.00;95062.31;5106599;28;20642;-74
2022/01/21 08:19:30;;;;;;;34.40;16.63;;;;;;;0.26;100.00;95060.91;5107722;28;20216;-74
2022/01/21 08:21:59;;;;;;;27.03;12.93;;;;;;;0.27;100.00;95067.66;5107638;28;20280;-73
2022/01/21 08:24:27;;;;;;;27.80;13.93;;;;;;;0.29;100.00;95067.53;5108954;28;20209;-73
2022/01/21 08:26:56;;;;;;;19.83;9.83;;;;;;;0.27;100.00;95066.84;5108133;28;20227;-74
2022/01/21 08:29:39;;;;;;;21.37;11.13;;;;;;;0.24;100.00;95065.38;5112040;28;20204;-75
2022/01/21 08:32:08;;;;;;;21.53;12.10;;;;;;;0.34;100.00;95080.66;5115052;28;20204;-82
2022/01/21 08:34:47;;;;;;;27.40;15.37;;;;;;;0.31;100.00;95070.72;5114780;28;20219;-84
2022/01/21 08:37:20;;;;;;;30.63;13.33;;;;;;;0.33;100.00;95073.94;5102750;28;20622;-82
2022/01/21 08:39:50;;;;;;;22.83;10.60;;;;;;;0.15;100.00;95047.56;5113711;28;20218;-83
2022/01/21 08:42:19;;;;;;;28.83;14.57;;;;;;;0.23;100.00;95040.00;5106385;28;20713;-84
2022/01/21 08:44:54;;;;;;;32.77;16.63;;;;;;;0.45;100.00;95054.88;5114274;28;20209;-83
2022/01/21 08:47:22;;;;;;;30.50;14.93;;;;;;;0.13;100.00;95006.84;5110423;28;20191;-88
2022/01/21 08:49:51;;;;;;;30.73;15.07;;;;;;;0.28;100.00;95037.78;5114182;28;20200;-80
2022/01/21 08:52:30;;;;;;;21.17;11.27;;;;;;;0.46;100.00;95053.94;5115359;28;20290;-86
2022/01/21 08:55:03;;;;;;;32.30;15.50;;;;;;;0.60;100.00;95073.06;5114943;28;20211;-88
2022/01/21 08:57:42;;;;;;;27.07;15.07;;;;;;;0.41;100.00;95072.25;5113319;28;20212;-86
2022/01/21 09:00:12;;;;;;;47.30;25.23;;;;;;;0.48;100.00;95091.19;5093530;28;20220;-86
2022/01/21 09:02:40;;;;;;;46.17;24.90;;;;;;;0.36;100.00;95081.31;5081783;28;20207;-82
2022/01/21 09:05:08;;;;;;;31.53;16.93;;;;;;;0.31;100.00;95075.84;5112242;28;20202;-85
2022/01/21 09:07:37;;;;;;;31.50;18.10;;;;;;;0.41;100.00;95086.78;5108677;28;20770;-85
2022/01/21 09:10:07;;;;;;;26.97;15.37;;;;;;;0.49;100.00;95076.66;5106399;28;20196;-85
2022/01/21 09:12:36;;;;;;;34.07;18.80;;;;;;;0.49;100.00;95059.53;5106888;28;20216;-86
2022/01/21 09:15:05;;;;;;;30.67;15.57;;;;;;;0.57;100.00;95053.72;5106870;28;20217;-85
2022/01/21 09:17:34;;;;;;;28.07;15.20;;;;;;;0.61;100.00;95056.78;5106177;28;20208;-78
2022/01/21 09:20:01;;;;;;;36.50;18.67;;;;;;;0.65;100.00;95058.88;5108993;28;20276;-84
2022/01/21 09:22:30;;;;;;;42.23;21.47;;;;;;;0.70;100.00;95037.97;5093056;28;20236;-85
2022/01/21 09:24:59;;;;;;;38.13;17.47;;;;;;;0.61;100.00;95016.66;5099541;28;20854;-85
2022/01/21 09:27:27;;;;;;;29.10;15.03;;;;;;;0.87;100.00;95050.72;5102853;28;20205;-85
2022/01/21 09:29:55;;;;;;;29.07;16.47;;;;;;;0.87;100.00;95032.03;5099692;28;20211;-86
2022/01/21 09:32:37;;;;;;;42.20;22.53;;;;;;;1.04;100.00;95036.28;5106606;28;20227;-88
2022/01/21 09:38:29;;;;;;;43.63;21.63;;;;;;;1.05;100.00;95033.59;5109746;28;20291;-87
2022/01/21 09:40:58;;;;;;;35.80;19.23;;;;;;;0.79;100.00;95002.09;5112048;28;20569;-89
2022/01/21 09:43:26;;;;;;;34.37;17.80;;;;;;;0.97;100.00;95045.53;5116249;28;20296;-88
2022/01/21 09:45:56;;;;;;;33.77;16.63;;;;;;;0.96;99.74;95043.91;5104881;28;20936;-85
2022/01/21 09:48:28;;;;;;;39.07;18.03;;;;;;;0.91;100.00;95051.25;5110399;28;20684;-86
2022/01/21 09:50:58;;;;;;;23.10;12.43;;;;;;;0.78;100.00;95038.84;5110744;28;20200;-86
2022/01/21 09:53:28;;;;;;;28.17;14.87;;;;;;;0.72;100.00;95023.31;5112691;28;20204;-85
2022/01/21 09:56:00;;;;;;;29.90;14.27;;;;;;;0.76;100.00;95033.06;5106213;28;20315;-88
2022/01/21 09:58:29;;;;;;;28.77;15.07;;;;;;;0.88;100.00;95034.44;5093831;28;20333;-85
2022/01/21 10:00:58;;;;;;;28.03;14.33;;;;;;;0.91;98.80;95021.34;5105541;28;20253;-87
2022/01/21 10:03:26;;;;;;;36.00;16.60;;;;;;;1.09;99.05;95021.31;5106534;28;20263;-87
2022/01/21 10:05:55;;;;;;;30.30;13.97;;;;;;;1.16;96.08;95029.97;5100035;28;20636;-86
2022/01/21 10:08:25;;;;;;;38.37;19.20;;;;;;;1.31;95.56;95030.22;5107490;28;20725;-86
2022/01/21 10:10:53;;;;;;;46.00;21.90;;;;;;;1.45;95.89;95012.53;5113666;28;20208;-88
2022/01/21 10:13:22;;;;;;;36.63;20.20;;;;;;;1.32;96.05;94972.97;5114809;28;20199;-88
2022/01/21 10:15:50;;;;;;;23.03;11.93;;;;;;;1.66;95.56;95014.69;5095287;28;20205;-87
2022/01/21 10:18:19;;;;;;;12.67;7.60;;;;;;;1.57;94.09;94992.56;5092714;28;20260;-87
2022/01/21 10:21:02;;;;;;;16.83;9.37;;;;;;;1.84;91.17;95014.59;5099206;28;20210;-88
2022/01/21 10:23:32;;;;;;;27.43;12.93;;;;;;;1.81;90.44;95010.59;5110769;28;20216;-87
2022/01/21 10:26:05;;;;;;;32.13;15.30;;;;;;;1.73;91.36;94993.41;5101476;28;20219;-87
2022/01/21 10:28:34;;;;;;;30.07;15.83;;;;;;;1.87;92.13;94999.72;5104255;28;20253;-86
2022/01/21 10:31:11;;;;;;;18.30;9.70;;;;;;;1.84;90.30;95006.91;5109301;28;20211;-89
2022/01/21 10:33:41;;;;;;;18.47;9.50;;;;;;;1.76;92.22;95001.78;5101478;28;20199;-87
2022/01/21 10:36:10;;;;;;;15.33;8.03;;;;;;;1.85;90.79;94999.06;5103834;28;20210;-87
2022/01/21 10:38:43;;;;;;;17.10;8.47;;;;;;;1.76;89.38;94982.06;5088793;28;20222;-89
2022/01/21 10:41:13;;;;;;;21.07;10.57;;;;;;;1.95;89.33;94997.19;5102277;28;20238;-89
2022/01/21 10:43:43;;;;;;;13.40;8.30;;;;;;;1.77;87.54;94970.06;5092258;28;20256;-83
2022/01/21 10:46:17;;;;;;;27.57;12.67;;;;;;;2.00;88.52;94994.13;5110757;28;20191;-89
2022/01/21 10:49:00;;;;;;;24.47;12.53;;;;;;;2.11;88.63;94996.38;5092121;28;20281;-89
2022/01/21 10:51:32;;;;;;;23.40;13.07;;;;;;;2.05;87.58;94992.69;5093774;28;20195;-89
2022/01/21 10:54:12;;;;;;;24.73;12.53;;;;;;;2.10;89.25;94985.38;5106098;28;20271;-87
2022/01/21 10:56:40;;;;;;;20.13;10.23;;;;;;;2.09;87.34;94983.75;5112583;28;20230;-87
2022/01/21 10:59:10;;;;;;;24.83;13.10;;;;;;;2.05;87.66;94982.44;5123314;28;20239;-89
2022/01/21 11:01:37;;;;;;;25.40;12.43;;;;;;;2.03;87.36;94979.25;5129461;28;20196;-87
2022/01/21 11:04:13;;;;;;;22.03;11.73;;;;;;;1.96;88.55;94975.72;5105022;28;20226;-87
2022/01/21 11:06:53;;;;;;;19.97;9.90;;;;;;;1.90;87.38;94980.69;5098901;28;20201;-88
2022/01/21 11:09:23;;;;;;;24.07;11.87;;;;;;;1.75;88.63;94974.53;5104251;28;20224;-87
2022/01/21 11:12:07;;;;;;;17.07;8.90;;;;;;;1.47;90.01;94976.53;5105644;28;20199;-81
2022/01/21 11:14:37;;;;;;;19.10;9.57;;;;;;;1.53;89.49;94968.25;5110263;28;20197;-83
2022/01/21 11:17:11;;;;;;;27.03;13.13;;;;;;;1.55;92.11;94961.22;5096806;28;20211;-82
2022/01/21 11:19:39;;;;;;;20.20;10.13;;;;;;;1.41;93.71;94962.59;5100769;28;20227;-82
2022/01/21 11:22:08;;;;;;;21.50;11.33;;;;;;;1.40;94.32;94957.63;5104089;28;20230;-85
2022/01/21 11:24:48;;;;;;;22.93;10.90;;;;;;;1.45;92.30;94968.19;5104348;28;20617;-82
2022/01/21 11:27:17;;;;;;;21.47;10.90;;;;;;;1.39;93.50;94956.00;5110745;28;20192;-85
2022/01/21 11:29:47;;;;;;;17.83;9.83;;;;;;;1.41;91.63;94966.91;5103895;28;20198;-81
2022/01/21 11:32:17;;;;;;;15.30;7.43;;;;;;;1.25;90.21;94949.72;5104005;28;20206;-87
2022/01/21 11:34:45;;;;;;;16.80;9.43;;;;;;;1.17;91.98;94959.13;5097928;28;20203;-87
2022/01/21 11:37:15;;;;;;;22.47;10.17;;;;;;;1.22;91.87;94962.03;5110912;28;20201;-87
2022/01/21 11:39:46;;;;;;;21.43;10.57;;;;;;;1.23;89.88;94951.66;5096361;28;20285;-87
2022/01/21 11:42:15;;;;;;;20.13;9.40;;;;;;;1.22;89.56;94964.59;5104539;28;20657;-87
2022/01/21 11:44:52;;;;;;;23.53;10.97;;;;;;;0.83;90.94;94941.22;5090452;28;20213;-85
2022/01/21 11:47:48;;;;;;;17.67;9.27;;;;;;;0.82;91.83;94949.84;5104015;28;20652;-88
2022/01/21 11:50:18;;;;;;;23.33;10.37;;;;;;;0.83;91.76;94975.28;5104986;28;20291;-87
2022/01/21 11:52:46;;;;;;;20.07;10.10;;;;;;;0.83;93.56;94969.34;5098169;28;20595;-87
2022/01/21 11:55:32;;;;;;;18.77;8.83;;;;;;;0.85;92.21;94964.88;5094621;28;20240;-88
2022/01/21 11:58:16;;;;;;;11.67;6.60;;;;;;;0.56;92.24;94948.09;5090621;28;20201;-87
2022/01/21 12:00:47;;;;;;;15.20;8.17;;;;;;;0.58;94.19;94965.81;5109232;28;20251;-87
2022/01/21 12:03:16;;;;;;;19.77;9.43;;;;;;;0.64;94.58;94949.88;5102774;28;20685;-85
2022/01/21 12:05:45;;;;;;;12.40;6.87;;;;;;;0.46;93.51;94959.38;5096170;28;20707;-86
2022/01/21 12:08:13;;;;;;;10.53;6.20;;;;;;;0.26;95.00;94953.59;5107688;28;20204;-83
2022/01/21 12:10:44;;;;;;;17.73;8.53;;;;;;;0.17;97.77;94951.16;5102302;28;20196;-78
2022/01/21 12:13:16;;;;;;;12.73;7.57;;;;;;;0.15;97.27;94953.84;5094178;28;20813;-79
2022/01/21 12:21:56;;;;;;;13.10;7.03;;;;;;;-0.06;99.10;94930.38;5116357;28;20190;-85
2022/01/21 12:24:54;;;;;;;14.47;7.57;;;;;;;0.06;99.64;94938.59;5115512;28;20227;-83
2022/01/21 12:27:26;;;;;;;13.77;7.57;;;;;;;0.07;98.34;94952.97;5115352;28;20216;-84
2022/01/21 12:30:26;;;;;;;13.80;7.90;;;;;;;0.17;97.44;94946.03;5115052;28;20181;-83
2022/01/21 12:33:02;;;;;;;13.17;6.80;;;;;;;0.11;96.04;94927.00;5114639;28;20207;-84
2022/01/21 12:35:32;;;;;;;16.20;8.80;;;;;;;0.08;98.31;94921.38;5106004;28;20198;-85
2022/01/21 12:41:46;;;;;;;18.90;8.97;;;;;;;0.22;96.77;94920.84;5113763;28;20251;-84